createdAt,value
2019-03-05T00:01:35.951Z,7.30
2019-03-05T00:04:04.905Z,7.30
2019-03-05T00:13:58.909Z,7.10
2019-03-05T00:16:28.228Z,7.10
2019-03-05T00:23:57.728Z,7.20
2019-03-05T00:26:36.778Z,7.20
2019-03-05T00:29:20.440Z,7.20
2019-03-05T00:31:49.585Z,7.10
2019-03-05T00:34:43.239Z,7.10
2019-03-05T00:46:15.860Z,7.30
2019-03-05T00:51:54.602Z,7.20
2019-03-05T00:57:54.056Z,7.10
2019-03-05T01:00:37.046Z,7.20
2019-03-05T01:03:22.087Z,7.20
2019-03-05T01:06:21.741Z,6.90
2019-03-05T01:08:50.917Z,6.60
2019-03-05T01:13:49.747Z,6.20
2019-03-05T01:16:22.253Z,5.80
2019-03-05T01:18:51.161Z,5.40
2019-03-05T01:23:48.772Z,5.00
2019-03-05T01:26:17.987Z,4.90
2019-03-05T01:28:47.040Z,4.80
2019-03-05T01:34:09.993Z,4.60
2019-03-05T01:39:22.853Z,4.40
2019-03-05T01:41:51.872Z,4.40
2019-03-05T01:44:20.723Z,4.30
2019-03-05T01:46:49.760Z,4.30
2019-03-05T01:49:18.647Z,4.30
2019-03-05T01:51:47.498Z,4.20
2019-03-05T01:54:16.565Z,4.00
2019-03-05T01:56:45.517Z,4.10
2019-03-05T01:59:14.386Z,4.00
2019-03-05T02:01:43.368Z,3.90
2019-03-05T02:04:12.232Z,3.90
2019-03-05T02:06:41.176Z,3.80
2019-03-05T04:57:09.820Z,5.10
2019-03-05T04:59:38.592Z,5.00
2019-03-05T05:02:07.399Z,5.10
2019-03-05T05:04:36.181Z,5.00
2019-03-05T05:07:05.165Z,5.10
2019-03-05T05:09:33.945Z,5.10
2019-03-05T05:12:02.722Z,5.20
2019-03-05T05:14:31.472Z,5.10
2019-03-05T05:17:00.241Z,5.20
2019-03-05T05:19:29.001Z,5.10
2019-03-05T05:21:57.776Z,5.20
2019-03-05T05:24:26.860Z,5.20
2019-03-05T05:26:55.712Z,5.20
2019-03-05T05:29:24.547Z,5.20
2019-03-05T05:31:53.357Z,5.20
2019-03-05T05:34:22.129Z,5.20
2019-03-05T05:36:50.941Z,5.20
2019-03-05T05:42:06.337Z,5.30
2019-03-05T05:44:35.622Z,5.30
2019-03-05T05:47:04.389Z,5.30
2019-03-05T05:49:33.152Z,5.30
2019-03-05T05:52:01.916Z,5.30
2019-03-05T05:54:30.779Z,5.30
2019-03-05T05:56:59.558Z,5.40
2019-03-05T05:59:28.341Z,5.40
2019-03-05T06:01:57.122Z,5.50
2019-03-05T06:04:25.884Z,5.50
2019-03-05T06:06:54.691Z,5.60
2019-03-05T06:11:51.857Z,5.60
2019-03-05T06:14:20.659Z,5.70
2019-03-05T06:16:49.448Z,5.60
2019-03-05T06:19:18.210Z,5.60
2019-03-05T06:21:47.068Z,5.70
2019-03-05T06:24:15.825Z,5.60
2019-03-05T06:26:44.636Z,5.80
2019-03-05T06:31:41.794Z,5.80
2019-03-05T06:34:10.556Z,5.80
2019-03-05T06:36:55.054Z,5.80
2019-03-05T06:44:20.549Z,5.80
2019-03-05T06:46:49.417Z,5.80
2019-03-05T06:51:46.532Z,5.90
2019-03-05T06:54:15.344Z,5.80
2019-03-05T06:56:44.108Z,5.90
2019-03-05T06:59:12.948Z,5.90
2019-03-05T07:01:41.717Z,5.90
2019-03-05T07:04:10.570Z,5.80
2019-03-05T07:06:58.461Z,5.90
2019-03-05T07:12:56.440Z,5.70
2019-03-05T07:16:06.186Z,5.70
2019-03-05T07:19:15.321Z,5.70
2019-03-05T07:22:12.842Z,5.70
2019-03-05T07:24:46.274Z,5.60
2019-03-05T07:27:17.637Z,5.60
2019-03-05T07:29:46.401Z,5.60
2019-03-05T07:32:15.245Z,5.60
2019-03-05T07:34:45.777Z,5.70
2019-03-05T07:37:14.709Z,5.80
2019-03-05T07:39:43.483Z,5.80
2019-03-05T07:42:12.321Z,5.80
2019-03-05T07:44:41.092Z,5.80
2019-03-05T07:49:43.626Z,5.80
2019-03-05T07:54:36.992Z,5.90
2019-03-05T07:57:05.972Z,6.00
2019-03-05T07:59:34.741Z,6.00
2019-03-05T08:02:03.751Z,5.90
2019-03-05T08:04:32.534Z,5.90
2019-03-05T08:07:01.546Z,6.00
2019-03-05T08:12:22.269Z,6.00
2019-03-05T08:14:58.107Z,6.00
2019-03-05T08:17:27.005Z,6.00
2019-03-05T08:19:55.861Z,6.00
2019-03-05T08:22:25.178Z,6.10
2019-03-05T08:24:53.987Z,5.90
2019-03-05T08:27:22.750Z,6.10
2019-03-05T08:29:51.529Z,6.10
2019-03-05T08:32:20.293Z,6.10
2019-03-05T08:34:49.115Z,6.10
2019-03-05T08:37:17.908Z,6.20
2019-03-05T08:39:46.736Z,6.30
2019-03-05T08:47:14.161Z,6.40
2019-03-05T08:49:42.993Z,6.50
2019-03-05T08:52:11.761Z,6.40
2019-03-05T08:54:40.796Z,6.40
2019-03-05T08:57:09.642Z,6.40
2019-03-05T08:59:38.487Z,6.40
2019-03-05T09:02:07.413Z,6.40
2019-03-05T09:04:36.249Z,6.50
2019-03-05T09:07:05.100Z,6.60
2019-03-05T09:09:33.860Z,6.60
2019-03-05T09:14:31.021Z,6.70
2019-03-05T09:16:59.857Z,6.80
2019-03-05T09:19:28.695Z,6.80
2019-03-05T09:21:57.468Z,6.90
2019-03-05T09:26:54.878Z,6.90
2019-03-05T09:29:23.643Z,7.00
2019-03-05T09:31:52.412Z,7.10
2019-03-05T09:34:21.189Z,7.10
2019-03-05T09:41:48.648Z,7.10
2019-03-05T09:44:17.484Z,7.00
2019-03-05T09:46:46.273Z,7.10
2019-03-05T09:49:15.013Z,7.20
2019-03-05T09:51:43.789Z,7.20
2019-03-05T09:54:12.588Z,7.20
2019-03-05T09:56:41.369Z,7.20
2019-03-05T09:59:10.216Z,7.30
2019-03-05T10:01:39.052Z,7.30
2019-03-05T10:04:07.913Z,7.20
2019-03-05T10:06:36.749Z,7.30
2019-03-05T10:09:07.589Z,7.40
2019-03-05T10:11:36.414Z,7.50
2019-03-05T10:14:05.336Z,7.40
2019-03-05T10:19:02.522Z,7.60
2019-03-05T10:21:31.348Z,7.60
2019-03-05T10:24:09.951Z,7.60
2019-03-05T10:26:31.117Z,7.60
2019-03-05T10:29:00.036Z,7.50
2019-03-05T10:31:28.868Z,7.50
2019-03-05T10:33:57.665Z,7.60
2019-03-05T10:38:57.637Z,7.50
2019-03-05T10:41:25.701Z,7.50
2019-03-05T10:43:54.574Z,7.50
2019-03-05T10:46:23.336Z,7.60
2019-03-05T10:51:20.817Z,7.80
2019-03-05T10:53:49.741Z,8.00
2019-03-05T10:58:52.393Z,8.00
2019-03-05T11:01:21.225Z,8.00
2019-03-05T11:03:50.140Z,8.10
2019-03-05T11:06:19.118Z,8.20
2019-03-05T11:11:16.772Z,8.30
2019-03-05T11:21:10.795Z,8.30
2019-03-05T11:23:40.190Z,8.20
2019-03-05T11:26:08.961Z,8.20
2019-03-05T11:28:37.856Z,8.30
2019-03-05T11:31:07.466Z,8.50
2019-03-05T11:33:36.348Z,8.70
2019-03-05T11:36:06.057Z,8.80
2019-03-05T11:38:35.024Z,8.80
2019-03-05T11:46:03.237Z,9.00
2019-03-05T11:51:00.446Z,8.90
2019-03-05T11:53:29.393Z,9.00
2019-03-05T11:55:58.187Z,9.10
2019-03-05T11:58:26.952Z,8.90
2019-03-05T12:01:23.877Z,8.90
2019-03-05T12:03:52.717Z,8.80
2019-03-05T12:06:21.484Z,8.80
2019-03-05T12:08:50.273Z,8.70
2019-03-05T12:11:19.225Z,8.80
2019-03-05T12:16:16.861Z,9.00
2019-03-05T12:18:45.715Z,9.10
2019-03-05T12:21:14.644Z,9.10
2019-03-05T12:23:47.011Z,9.30
2019-03-05T12:28:42.684Z,9.10
2019-03-05T12:31:11.617Z,9.10
2019-03-05T12:33:40.517Z,9.00
2019-03-05T12:36:09.443Z,8.90
2019-03-05T12:41:06.659Z,9.00
2019-03-05T12:43:35.682Z,9.00
2019-03-05T12:46:04.633Z,8.90
2019-03-05T12:48:40.036Z,9.00
2019-03-05T12:51:04.273Z,9.10
2019-03-05T12:53:33.104Z,9.50
2019-03-05T12:56:01.965Z,9.60
2019-03-05T12:58:30.733Z,9.80
2019-03-05T13:00:59.589Z,9.80
2019-03-05T13:03:28.392Z,9.70
2019-03-05T13:05:57.407Z,9.70
2019-03-05T13:08:28.623Z,9.50
2019-03-05T13:10:56.741Z,9.50
2019-03-05T13:13:25.580Z,9.50
2019-03-05T13:15:56.555Z,9.30
2019-03-05T13:18:26.777Z,9.10
2019-03-05T13:20:55.763Z,9.00
2019-03-05T13:23:24.592Z,9.10
2019-03-05T13:28:21.755Z,9.20
2019-03-05T13:30:50.661Z,9.00
2019-03-05T13:33:19.425Z,9.10
2019-03-05T13:35:48.253Z,9.00
2019-03-05T13:38:17.117Z,9.10
2019-03-05T13:43:14.355Z,9.00
2019-03-05T13:45:49.226Z,9.10
2019-03-05T13:51:50.686Z,9.20
2019-03-05T13:54:48.561Z,9.30
2019-03-05T13:57:46.872Z,9.40
2019-03-05T14:05:54.078Z,9.80
2019-03-05T14:08:48.936Z,10.10
2019-03-05T14:11:17.784Z,10.20
2019-03-05T14:13:46.622Z,10.10
2019-03-05T14:16:17.562Z,10.20
2019-03-05T14:18:46.405Z,10.20
2019-03-05T14:21:15.257Z,10.20
2019-03-05T14:23:44.236Z,10.20
2019-03-05T14:28:41.713Z,10.30
2019-03-05T14:31:10.637Z,10.30
2019-03-05T14:33:39.582Z,10.30
2019-03-05T14:36:08.436Z,10.10
2019-03-05T14:38:37.356Z,10.10
2019-03-05T14:41:06.200Z,10.00
2019-03-05T14:43:35.311Z,10.00
2019-03-05T14:46:04.517Z,10.10
2019-03-05T14:48:33.418Z,10.10
2019-03-05T14:51:02.547Z,10.20
2019-03-05T14:53:31.377Z,10.20
2019-03-05T14:56:00.243Z,10.40
2019-03-05T14:58:29.013Z,10.60
2019-03-05T15:00:58.384Z,10.70
2019-03-05T15:03:27.193Z,10.80
2019-03-05T15:05:56.183Z,10.80
2019-03-05T15:08:25.337Z,10.80
2019-03-05T15:13:22.727Z,10.50
2019-03-05T15:15:51.563Z,10.40
2019-03-05T15:20:49.144Z,10.40
2019-03-05T15:23:17.919Z,10.50
2019-03-05T15:25:46.773Z,10.50
2019-03-05T15:30:44.151Z,10.50
2019-03-05T15:33:12.956Z,10.50
2019-03-05T15:43:07.063Z,10.20
2019-03-05T15:48:04.451Z,10.00
2019-03-05T15:50:33.303Z,10.10
2019-03-05T15:53:02.193Z,10.20
2019-03-05T15:55:31.008Z,10.20
2019-03-05T15:57:59.867Z,10.20
2019-03-05T16:00:30.051Z,10.20
2019-03-05T16:02:59.298Z,10.10
2019-03-05T16:05:28.458Z,10.10
2019-03-05T16:07:57.400Z,9.90
2019-03-05T16:12:54.500Z,9.70
2019-03-05T16:15:23.441Z,9.80
2019-03-05T16:17:54.317Z,10.00
2019-03-05T16:20:25.863Z,10.00
2019-03-05T16:22:55.017Z,9.90
2019-03-05T16:25:23.909Z,9.80
2019-03-05T16:27:52.800Z,9.70
2019-03-05T16:30:39.600Z,9.60
2019-03-05T16:33:32.597Z,9.50
2019-03-05T16:36:38.416Z,9.20
2019-03-05T16:39:13.137Z,9.10
2019-03-05T16:41:53.513Z,8.90
2019-03-05T16:44:28.853Z,8.80
2019-03-05T16:47:16.802Z,8.80
2019-03-05T16:52:56.709Z,8.60
2019-03-05T16:55:43.613Z,8.70
2019-03-05T16:58:19.688Z,8.70
2019-03-05T17:01:16.727Z,8.80
2019-03-05T17:03:57.905Z,8.80
2019-03-05T17:06:48.173Z,8.70
2019-03-05T17:09:36.265Z,8.60
2019-03-05T17:12:05.182Z,8.30
2019-03-05T17:17:02.492Z,8.40
2019-03-05T17:19:31.272Z,8.30
2019-03-05T17:22:00.424Z,8.30
2019-03-05T17:29:26.001Z,8.10
2019-03-05T17:54:12.488Z,6.60
2019-03-05T17:56:41.497Z,6.60
2019-03-05T18:01:39.475Z,6.50
2019-03-05T18:09:06.617Z,6.50
2019-03-05T18:23:57.417Z,6.10
2019-03-05T18:26:26.328Z,6.30
2019-03-05T18:28:55.092Z,6.50
2019-03-05T18:31:23.970Z,6.70
2019-03-05T18:33:52.844Z,6.70
2019-03-05T18:41:18.506Z,6.90
2019-03-05T18:46:15.672Z,6.90
2019-03-05T18:48:44.908Z,6.90
2019-03-05T18:51:13.672Z,6.80
2019-03-05T18:56:11.420Z,6.80
2019-03-05T18:58:40.276Z,6.80
2019-03-05T19:01:09.780Z,6.80
2019-03-05T19:03:38.649Z,6.80
2019-03-05T19:06:07.563Z,6.80
2019-03-05T19:13:33.435Z,6.90
2019-03-05T19:20:58.988Z,6.90
2019-03-05T19:23:27.800Z,6.90
2019-03-05T19:25:56.836Z,6.80
2019-03-05T19:28:25.944Z,6.80
2019-03-05T19:30:54.793Z,6.80
2019-03-05T19:33:23.559Z,6.80
2019-03-05T19:35:52.396Z,6.70
2019-03-05T19:38:21.420Z,6.70
2019-03-05T19:43:18.575Z,6.70
2019-03-05T19:45:47.361Z,6.60
2019-03-05T19:48:16.129Z,6.60
2019-03-05T19:50:45.274Z,6.60
2019-03-05T19:55:42.596Z,6.40
2019-03-05T19:58:12.341Z,6.40
2019-03-05T20:00:50.056Z,6.40
2019-03-05T20:03:18.808Z,6.40
2019-03-05T20:08:16.568Z,6.30
2019-03-05T20:10:45.394Z,6.40
2019-03-05T20:13:14.616Z,6.40
2019-03-05T20:15:43.466Z,6.30
2019-03-05T20:20:40.971Z,6.40
2019-03-05T20:23:09.876Z,6.40
2019-03-05T20:25:39.169Z,6.40
2019-03-05T20:28:08.420Z,6.40
2019-03-05T20:30:38.261Z,6.40
2019-03-05T20:33:07.573Z,6.30
2019-03-05T20:35:36.615Z,6.30
2019-03-05T20:47:59.196Z,6.20
2019-03-05T20:50:28.118Z,6.30
2019-03-05T20:52:57.020Z,6.30
2019-03-05T20:55:25.932Z,6.40
2019-03-05T21:05:25.253Z,6.60
2019-03-05T21:17:47.948Z,6.80
2019-03-05T21:37:37.212Z,6.80
2019-03-05T21:47:33.033Z,6.70
2019-03-05T22:02:24.813Z,6.80
2019-03-05T22:09:50.385Z,6.90
2019-03-05T22:12:19.148Z,7.00
2019-03-05T22:19:44.792Z,7.20
2019-03-05T22:24:41.880Z,7.20
2019-03-05T22:27:10.728Z,7.30
2019-03-05T22:29:39.496Z,7.30
2019-03-05T22:32:08.254Z,7.30
2019-03-05T22:34:37.048Z,7.40
2019-03-05T22:49:27.419Z,7.60
2019-03-05T22:51:56.264Z,7.60
2019-03-05T22:59:24.052Z,7.60
2019-03-05T23:01:52.969Z,7.70
2019-03-05T23:06:56.664Z,7.70
2019-03-05T23:11:54.893Z,7.70
2019-03-05T23:14:24.214Z,7.70
2019-03-05T23:16:53.549Z,7.70
2019-03-05T23:19:22.929Z,7.80
2019-03-05T23:24:20.462Z,7.80
2019-03-05T23:26:49.404Z,7.80
2019-03-05T23:29:19.947Z,7.90
2019-03-05T23:31:49.052Z,7.90
2019-03-05T23:34:18.602Z,7.90
2019-03-05T23:36:47.581Z,7.90
2019-03-05T23:41:45.668Z,8.00
2019-03-05T23:46:43.072Z,8.10
2019-03-05T23:49:12.006Z,8.00
2019-03-05T23:51:40.815Z,8.10
2019-03-05T23:54:09.741Z,8.10
2019-03-05T23:56:38.692Z,8.10
2019-03-05T23:59:07.475Z,8.10
